createdAt,value
2023-03-29T00:02:29.116Z,18.96
2023-03-29T00:04:55.502Z,18.96
2023-03-29T00:07:21.873Z,18.93
2023-03-29T00:09:48.189Z,18.95
2023-03-29T00:15:08.629Z,18.95
2023-03-29T00:17:37.877Z,18.97
2023-03-29T00:20:04.236Z,18.98
2023-03-29T00:22:33.350Z,18.97
2023-03-29T00:24:59.685Z,18.95
2023-03-29T00:30:12.839Z,18.97
2023-03-29T00:32:41.997Z,18.91
2023-03-29T00:35:08.358Z,18.97
2023-03-29T00:37:34.683Z,18.93
2023-03-29T00:40:00.978Z,18.95
2023-03-29T00:45:24.238Z,18.92
2023-03-29T00:47:53.384Z,18.94
2023-03-29T00:50:19.775Z,18.96
2023-03-29T00:52:48.896Z,18.92
2023-03-29T00:55:15.262Z,18.95
2023-03-29T01:00:35.301Z,18.95
2023-03-29T01:03:01.701Z,18.92
2023-03-29T01:05:28.068Z,18.95
2023-03-29T01:07:57.164Z,18.95
2023-03-29T01:10:23.496Z,18.94
2023-03-29T01:15:46.505Z,18.94
2023-03-29T01:18:12.908Z,18.89
2023-03-29T01:20:42.007Z,18.91
2023-03-29T01:23:08.327Z,18.89
2023-03-29T01:25:34.668Z,18.94
2023-03-29T01:30:44.726Z,18.90
2023-03-29T01:33:11.055Z,18.88
2023-03-29T01:35:37.538Z,18.86
2023-03-29T01:38:03.931Z,18.87
2023-03-29T01:40:30.245Z,18.87
2023-03-29T01:45:50.147Z,18.92
2023-03-29T01:48:16.504Z,18.89
2023-03-29T01:50:42.833Z,18.87
2023-03-29T01:53:09.198Z,18.90
2023-03-29T01:55:35.495Z,18.88
2023-03-29T02:00:55.782Z,18.89
2023-03-29T02:03:25.065Z,18.90
2023-03-29T02:05:51.489Z,18.87
2023-03-29T02:08:17.866Z,18.88
2023-03-29T02:10:46.981Z,18.88
2023-03-29T02:16:07.010Z,18.84
2023-03-29T02:18:33.355Z,18.87
2023-03-29T02:21:02.645Z,18.90
2023-03-29T02:23:29.152Z,18.89
2023-03-29T02:25:55.496Z,18.87
2023-03-29T02:31:05.716Z,18.88
2023-03-29T02:33:32.138Z,18.84
2023-03-29T02:35:58.528Z,18.84
2023-03-29T02:38:24.883Z,18.84
2023-03-29T02:40:54.022Z,18.83
2023-03-29T02:46:04.087Z,18.83
2023-03-29T02:48:30.439Z,18.84
2023-03-29T02:50:56.766Z,18.83
2023-03-29T02:53:23.111Z,18.83
2023-03-29T02:55:52.254Z,18.87
2023-03-29T02:58:18.601Z,18.84
2023-03-29T03:00:44.969Z,18.87
2023-03-29T03:03:11.412Z,18.86
2023-03-29T03:05:37.840Z,18.83
2023-03-29T03:08:07.017Z,18.84
2023-03-29T03:10:33.358Z,18.82
2023-03-29T03:13:02.449Z,18.86
2023-03-29T03:15:28.806Z,18.83
2023-03-29T03:17:55.226Z,18.84
2023-03-29T03:20:21.707Z,18.80
2023-03-29T03:22:48.030Z,18.80
2023-03-29T03:25:14.385Z,18.81
2023-03-29T03:27:40.730Z,18.83
2023-03-29T03:30:07.067Z,18.81
2023-03-29T03:32:33.401Z,18.86
2023-03-29T03:34:59.792Z,18.82
2023-03-29T03:37:26.138Z,18.78
2023-03-29T03:39:52.483Z,18.80
2023-03-29T03:42:18.922Z,18.81
2023-03-29T03:44:45.213Z,18.84
2023-03-29T03:47:11.555Z,18.79
2023-03-29T03:49:37.891Z,18.79
2023-03-29T03:52:07.027Z,18.78
2023-03-29T03:54:33.349Z,18.86
2023-03-29T03:56:59.754Z,18.79
2023-03-29T03:59:26.146Z,18.80
2023-03-29T04:04:36.394Z,18.78
2023-03-29T04:07:02.780Z,18.80
2023-03-29T04:09:29.226Z,18.78
2023-03-29T04:11:55.555Z,18.81
2023-03-29T04:14:21.891Z,18.81
2023-03-29T04:19:42.434Z,18.81
2023-03-29T04:22:08.796Z,18.78
2023-03-29T04:24:37.936Z,18.80
2023-03-29T04:27:07.072Z,18.81
2023-03-29T04:29:33.408Z,18.83
2023-03-29T04:34:56.245Z,18.80
2023-03-29T04:37:22.578Z,18.80
2023-03-29T04:39:49.088Z,18.78
2023-03-29T04:42:15.491Z,18.80
2023-03-29T04:44:41.862Z,18.82
2023-03-29T04:50:02.224Z,18.83
2023-03-29T04:52:28.627Z,18.82
2023-03-29T04:54:54.941Z,18.81
2023-03-29T04:57:21.310Z,18.86
2023-03-29T04:59:47.715Z,18.80
2023-03-29T05:04:57.864Z,18.89
2023-03-29T05:07:24.184Z,18.95
2023-03-29T05:09:50.573Z,18.96
2023-03-29T05:12:16.874Z,18.90
2023-03-29T05:14:43.216Z,18.87
2023-03-29T05:20:03.358Z,18.91
2023-03-29T05:22:29.726Z,18.99
2023-03-29T05:24:56.046Z,19.02
2023-03-29T05:27:22.502Z,18.99
2023-03-29T05:29:48.994Z,19.01
2023-03-29T05:35:10.289Z,19.04
2023-03-29T05:37:37.592Z,19.08
2023-03-29T05:40:05.577Z,19.05
2023-03-29T05:42:32.822Z,19.07
2023-03-29T05:44:59.208Z,18.99
2023-03-29T05:50:10.081Z,19.10
2023-03-29T05:52:37.453Z,19.11
2023-03-29T05:55:04.964Z,19.12
2023-03-29T05:57:31.491Z,19.14
2023-03-29T05:59:59.766Z,19.10
2023-03-29T06:05:11.486Z,19.12
2023-03-29T06:07:38.774Z,19.10
2023-03-29T06:10:06.243Z,19.12
2023-03-29T06:12:33.975Z,19.13
2023-03-29T06:15:00.725Z,19.15
2023-03-29T06:20:22.172Z,19.18
2023-03-29T06:22:48.974Z,19.18
2023-03-29T06:25:16.267Z,19.21
2023-03-29T06:27:43.754Z,19.27
2023-03-29T06:30:11.017Z,18.17
2023-03-29T06:35:24.803Z,17.22
2023-03-29T06:37:51.148Z,17.12
2023-03-29T06:40:18.660Z,16.98
2023-03-29T06:42:45.142Z,16.96
2023-03-29T06:45:11.630Z,16.90
2023-03-29T06:50:32.264Z,16.82
2023-03-29T06:52:58.789Z,16.84
2023-03-29T06:55:25.294Z,16.95
2023-03-29T06:57:52.761Z,16.98
2023-03-29T07:00:20.188Z,17.02
2023-03-29T07:05:41.442Z,17.20
2023-03-29T07:08:07.934Z,17.38
2023-03-29T07:10:34.396Z,17.39
2023-03-29T07:13:01.843Z,17.37
2023-03-29T07:15:28.297Z,17.32
2023-03-29T07:20:40.799Z,17.50
2023-03-29T07:23:07.249Z,17.44
2023-03-29T07:25:33.719Z,17.52
2023-03-29T07:28:00.172Z,17.61
2023-03-29T07:30:27.314Z,17.62
2023-03-29T07:32:55.014Z,17.86
2023-03-29T07:35:22.414Z,17.96
2023-03-29T07:37:50.688Z,17.86
2023-03-29T07:40:17.230Z,17.81
2023-03-29T07:42:44.622Z,17.84
2023-03-29T07:45:11.918Z,17.69
2023-03-29T07:47:38.463Z,17.85
2023-03-29T07:50:05.971Z,17.63
2023-03-29T07:52:33.300Z,17.75
2023-03-29T07:55:02.476Z,17.81
2023-03-29T07:57:28.987Z,17.69
2023-03-29T07:59:55.500Z,17.70
2023-03-29T08:02:22.761Z,17.76
2023-03-29T08:04:49.246Z,17.63
2023-03-29T08:07:18.449Z,17.61
2023-03-29T08:09:45.269Z,17.68
2023-03-29T08:12:11.632Z,17.62
2023-03-29T08:14:37.965Z,17.58
2023-03-29T08:17:04.357Z,17.53
2023-03-29T08:19:30.809Z,17.64
2023-03-29T08:21:58.227Z,17.63
2023-03-29T08:24:24.622Z,17.57
2023-03-29T08:26:50.968Z,17.65
2023-03-29T08:29:18.181Z,17.58
2023-03-29T08:31:44.603Z,17.59
2023-03-29T08:34:10.956Z,17.59
2023-03-29T08:36:37.308Z,17.61
2023-03-29T08:39:03.697Z,17.68
2023-03-29T08:41:30.058Z,17.71
2023-03-29T08:43:56.474Z,17.64
2023-03-29T08:46:22.822Z,17.73
2023-03-29T08:48:49.220Z,17.52
2023-03-29T08:54:09.498Z,17.37
2023-03-29T08:56:35.861Z,17.40
2023-03-29T08:59:02.198Z,17.50
2023-03-29T09:01:28.608Z,17.85
2023-03-29T09:03:55.069Z,18.29
2023-03-29T09:09:15.482Z,17.86
2023-03-29T09:11:41.804Z,17.64
2023-03-29T09:14:08.150Z,17.68
2023-03-29T09:16:34.608Z,17.62
2023-03-29T09:19:01.059Z,17.75
2023-03-29T09:24:14.203Z,17.38
2023-03-29T09:26:40.508Z,17.38
2023-03-29T09:29:09.447Z,17.47
2023-03-29T09:31:36.020Z,17.50
2023-03-29T09:34:02.403Z,17.47
2023-03-29T09:39:12.855Z,17.51
2023-03-29T09:41:39.179Z,17.51
2023-03-29T09:44:05.539Z,17.41
2023-03-29T09:46:31.869Z,17.50
2023-03-29T09:48:58.182Z,17.68
2023-03-29T09:54:18.501Z,17.71
2023-03-29T09:56:44.872Z,17.65
2023-03-29T09:59:11.272Z,17.74
2023-03-29T10:01:37.644Z,17.74
2023-03-29T10:04:04.041Z,17.74
2023-03-29T10:09:24.208Z,17.74
2023-03-29T10:11:50.577Z,17.82
2023-03-29T10:14:16.960Z,17.75
2023-03-29T10:16:43.363Z,17.82
2023-03-29T10:19:09.755Z,17.84
2023-03-29T10:24:58.478Z,17.85
2023-03-29T10:27:24.847Z,18.00
2023-03-29T10:29:51.197Z,18.00
2023-03-29T10:32:18.412Z,18.11
2023-03-29T10:34:44.781Z,18.08
2023-03-29T10:40:04.882Z,17.92
2023-03-29T10:42:31.278Z,17.99
2023-03-29T10:44:57.634Z,18.03
2023-03-29T10:47:24.014Z,18.14
2023-03-29T10:49:51.001Z,18.17
2023-03-29T10:55:01.531Z,18.15
2023-03-29T10:57:27.969Z,18.10
2023-03-29T10:59:54.356Z,18.12
2023-03-29T11:02:20.733Z,18.21
2023-03-29T11:04:47.109Z,18.18
2023-03-29T11:10:07.540Z,18.05
2023-03-29T11:12:33.914Z,18.06
2023-03-29T11:15:00.254Z,18.03
2023-03-29T11:17:26.638Z,17.99
2023-03-29T11:19:53.060Z,18.05
2023-03-29T11:25:03.282Z,18.07
2023-03-29T11:27:29.659Z,18.07
2023-03-29T11:29:56.043Z,18.03
2023-03-29T11:32:22.387Z,18.18
2023-03-29T11:34:48.742Z,18.24
2023-03-29T11:40:09.176Z,18.32
2023-03-29T11:42:35.500Z,18.33
2023-03-29T11:45:01.872Z,18.28
2023-03-29T11:47:28.265Z,18.30
2023-03-29T11:49:54.604Z,18.34
2023-03-29T11:55:14.627Z,18.32
2023-03-29T11:57:41.073Z,18.35
2023-03-29T12:00:07.469Z,18.38
2023-03-29T12:02:33.932Z,18.40
2023-03-29T12:05:00.402Z,18.36
2023-03-29T12:07:26.762Z,18.30
2023-03-29T12:09:53.129Z,18.32
2023-03-29T12:12:19.468Z,18.32
2023-03-29T12:14:45.791Z,18.31
2023-03-29T12:17:12.162Z,18.35
2023-03-29T12:19:41.744Z,18.39
2023-03-29T12:22:09.781Z,18.39
2023-03-29T12:24:36.325Z,18.37
2023-03-29T12:27:02.713Z,18.32
2023-03-29T12:29:29.033Z,18.24
2023-03-29T12:31:55.507Z,18.23
2023-03-29T12:34:21.955Z,18.27
2023-03-29T12:36:48.314Z,18.22
2023-03-29T12:39:14.744Z,18.20
2023-03-29T12:41:41.081Z,18.20
2023-03-29T12:44:09.536Z,18.20
2023-03-29T12:46:37.167Z,18.17
2023-03-29T12:49:03.622Z,18.18
2023-03-29T12:51:29.947Z,18.21
2023-03-29T12:53:56.296Z,18.14
2023-03-29T12:56:22.677Z,18.07
2023-03-29T12:58:49.012Z,18.04
2023-03-29T13:01:16.361Z,18.03
2023-03-29T13:03:42.761Z,18.01
2023-03-29T13:06:09.151Z,17.98
2023-03-29T13:08:35.570Z,17.97
2023-03-29T13:11:01.973Z,17.93
2023-03-29T13:13:28.303Z,17.95
2023-03-29T13:15:54.731Z,17.93
2023-03-29T13:18:21.104Z,17.89
2023-03-29T13:20:47.448Z,17.93
2023-03-29T13:23:16.970Z,17.94
2023-03-29T13:28:27.665Z,17.92
2023-03-29T13:30:54.082Z,17.89
2023-03-29T13:33:20.519Z,17.92
2023-03-29T13:35:46.914Z,17.87
2023-03-29T13:38:13.400Z,17.90
2023-03-29T13:43:23.545Z,17.88
2023-03-29T13:45:49.879Z,17.84
2023-03-29T13:48:16.295Z,17.88
2023-03-29T13:50:42.667Z,17.88
2023-03-29T13:53:09.007Z,18.01
2023-03-29T13:58:29.200Z,18.18
2023-03-29T14:00:55.599Z,18.21
2023-03-29T14:03:21.998Z,18.14
2023-03-29T14:05:48.346Z,18.17
2023-03-29T14:08:14.722Z,18.23
2023-03-29T14:13:37.835Z,18.45
2023-03-29T14:16:05.462Z,18.51
2023-03-29T14:18:32.142Z,18.32
2023-03-29T14:20:58.710Z,18.37
2023-03-29T14:23:25.316Z,18.47
2023-03-29T14:28:36.451Z,18.26
2023-03-29T14:31:02.849Z,18.50
2023-03-29T14:33:29.371Z,18.44
2023-03-29T14:35:55.834Z,18.32
2023-03-29T14:38:22.232Z,18.41
2023-03-29T14:43:42.300Z,18.33
2023-03-29T14:46:08.686Z,18.32
2023-03-29T14:48:35.081Z,18.33
2023-03-29T14:51:01.490Z,18.06
2023-03-29T14:53:27.831Z,17.99
2023-03-29T14:58:37.987Z,17.94
2023-03-29T15:01:04.494Z,17.79
2023-03-29T15:03:30.950Z,17.88
2023-03-29T15:05:57.366Z,17.86
2023-03-29T15:08:23.686Z,17.94
2023-03-29T15:13:34.114Z,17.85
2023-03-29T15:16:00.650Z,17.84
2023-03-29T15:18:27.294Z,18.00
2023-03-29T15:20:53.648Z,17.97
2023-03-29T15:23:20.047Z,17.90
2023-03-29T15:25:46.410Z,18.02
2023-03-29T15:28:12.753Z,17.89
2023-03-29T15:30:39.988Z,17.88
2023-03-29T15:33:06.412Z,17.90
2023-03-29T15:35:32.863Z,17.83
2023-03-29T15:37:59.190Z,17.99
2023-03-29T15:40:25.613Z,17.88
2023-03-29T15:42:52.010Z,18.01
2023-03-29T15:45:18.377Z,17.85
2023-03-29T15:47:44.829Z,17.88
2023-03-29T15:50:11.258Z,18.04
2023-03-29T15:52:37.617Z,17.97
2023-03-29T15:55:03.980Z,17.89
2023-03-29T15:57:30.451Z,17.78
2023-03-29T15:59:56.864Z,17.86
2023-03-29T16:02:23.215Z,17.82
2023-03-29T16:04:49.724Z,17.82
2023-03-29T16:07:16.206Z,17.82
2023-03-29T16:09:42.642Z,17.79
2023-03-29T16:12:09.135Z,17.83
2023-03-29T16:14:36.482Z,17.84
2023-03-29T16:17:05.044Z,17.82
2023-03-29T16:19:32.346Z,17.84
2023-03-29T16:21:58.777Z,17.86
2023-03-29T16:24:25.277Z,17.82
2023-03-29T16:26:53.367Z,17.82
2023-03-29T16:32:15.888Z,17.83
2023-03-29T16:34:42.423Z,17.79
2023-03-29T16:37:08.904Z,17.82
2023-03-29T16:39:35.337Z,17.81
2023-03-29T16:42:01.834Z,17.81
2023-03-29T16:47:13.342Z,17.81
2023-03-29T16:49:40.289Z,17.79
2023-03-29T16:52:07.048Z,17.80
2023-03-29T16:54:33.483Z,17.77
2023-03-29T16:57:00.985Z,17.74
2023-03-29T17:02:23.199Z,17.77
2023-03-29T17:04:49.711Z,17.70
2023-03-29T17:07:16.212Z,17.72
2023-03-29T17:09:42.653Z,17.70
2023-03-29T17:12:11.806Z,17.77
2023-03-29T17:17:22.117Z,17.83
2023-03-29T17:19:48.479Z,18.09
2023-03-29T17:22:15.721Z,18.24
2023-03-29T17:24:42.216Z,18.23
2023-03-29T17:27:08.711Z,18.27
2023-03-29T17:32:30.412Z,18.44
2023-03-29T17:34:56.927Z,18.44
2023-03-29T17:37:23.386Z,18.46
2023-03-29T17:39:50.818Z,18.46
2023-03-29T17:42:17.297Z,18.51
2023-03-29T17:47:28.067Z,18.54
2023-03-29T17:49:54.538Z,18.51
2023-03-29T17:52:20.997Z,18.56
2023-03-29T17:54:48.373Z,18.56
2023-03-29T17:57:14.931Z,18.55
2023-03-29T18:02:26.537Z,18.60
2023-03-29T18:04:54.025Z,18.58
2023-03-29T18:07:20.566Z,18.58
2023-03-29T18:09:47.008Z,18.60
2023-03-29T18:12:14.400Z,18.61
2023-03-29T18:17:35.060Z,18.63
2023-03-29T18:20:02.546Z,18.62
2023-03-29T18:22:29.006Z,18.65
2023-03-29T18:24:56.423Z,18.61
2023-03-29T18:27:23.816Z,18.62
2023-03-29T18:32:36.947Z,18.64
2023-03-29T18:35:04.247Z,18.61
2023-03-29T18:37:30.918Z,18.63
2023-03-29T18:40:00.152Z,18.66
2023-03-29T18:42:26.691Z,18.65
2023-03-29T18:47:39.969Z,18.61
2023-03-29T18:50:08.287Z,18.63
2023-03-29T18:52:34.784Z,18.66
2023-03-29T18:55:01.274Z,18.74
2023-03-29T18:57:28.578Z,18.69
2023-03-29T19:02:53.800Z,18.75
2023-03-29T19:05:22.234Z,18.81
2023-03-29T19:07:50.506Z,18.72
2023-03-29T19:10:16.899Z,18.76
2023-03-29T19:12:43.316Z,18.80
2023-03-29T19:17:56.524Z,18.80
2023-03-29T19:20:23.047Z,18.84
2023-03-29T19:22:49.525Z,18.86
2023-03-29T19:25:16.982Z,18.81
2023-03-29T19:27:44.322Z,18.88
2023-03-29T19:33:06.709Z,18.88
2023-03-29T19:35:33.236Z,18.89
2023-03-29T19:37:59.697Z,18.83
2023-03-29T19:40:26.165Z,18.89
2023-03-29T19:42:52.622Z,18.89
2023-03-29T19:48:05.164Z,18.87
2023-03-29T19:50:32.478Z,18.95
2023-03-29T19:52:59.856Z,18.92
2023-03-29T19:55:26.336Z,18.89
2023-03-29T19:57:52.804Z,18.90
2023-03-29T20:00:19.283Z,18.92
2023-03-29T20:02:46.602Z,18.92
2023-03-29T20:05:13.183Z,18.92
2023-03-29T20:07:39.679Z,18.92
2023-03-29T20:10:07.042Z,18.89
2023-03-29T20:12:33.520Z,18.92
2023-03-29T20:14:59.985Z,18.93
2023-03-29T20:17:27.452Z,18.96
2023-03-29T20:19:54.857Z,18.91
2023-03-29T20:22:22.246Z,18.90
2023-03-29T20:24:49.647Z,18.91
2023-03-29T20:27:17.015Z,18.89
2023-03-29T20:29:44.354Z,18.92
2023-03-29T20:32:11.794Z,18.96
2023-03-29T20:34:38.419Z,19.11
2023-03-29T20:37:05.250Z,19.09
2023-03-29T20:39:32.774Z,19.40
2023-03-29T20:41:59.252Z,19.42
2023-03-29T20:44:25.723Z,19.37
2023-03-29T20:46:52.221Z,19.21
2023-03-29T20:49:19.613Z,19.27
2023-03-29T20:51:47.015Z,19.13
2023-03-29T20:54:13.447Z,19.24
2023-03-29T20:56:41.014Z,19.37
2023-03-29T20:59:07.481Z,19.38
2023-03-29T21:01:33.957Z,19.50
2023-03-29T21:06:56.266Z,20.53
2023-03-29T21:09:23.615Z,20.75
2023-03-29T21:11:50.833Z,20.47
2023-03-29T21:14:18.181Z,19.89
2023-03-29T21:16:45.418Z,20.32
2023-03-29T21:22:07.432Z,19.14
2023-03-29T21:24:37.411Z,19.76
2023-03-29T21:27:05.708Z,20.28
2023-03-29T21:29:32.248Z,19.30
2023-03-29T21:31:58.890Z,19.04
2023-03-29T21:37:09.321Z,18.99
2023-03-29T21:39:35.793Z,18.86
2023-03-29T21:42:02.259Z,18.96
2023-03-29T21:44:30.649Z,18.94
2023-03-29T21:46:59.425Z,18.96
2023-03-29T21:52:20.763Z,18.86
2023-03-29T21:54:47.310Z,18.88
2023-03-29T21:57:14.681Z,18.83
2023-03-29T21:59:41.098Z,18.77
2023-03-29T22:02:07.602Z,18.83
2023-03-29T22:07:19.201Z,18.71
2023-03-29T22:09:45.695Z,18.76
2023-03-29T22:12:12.138Z,18.66
2023-03-29T22:14:39.474Z,18.72
2023-03-29T22:17:06.804Z,18.74
2023-03-29T22:22:29.034Z,18.71
2023-03-29T22:24:58.965Z,18.75
2023-03-29T22:27:25.367Z,18.69
2023-03-29T22:29:51.843Z,18.76
2023-03-29T22:32:18.340Z,18.65
2023-03-29T22:37:42.791Z,18.69
2023-03-29T22:40:09.353Z,18.67
2023-03-29T22:42:36.607Z,18.68
2023-03-29T22:45:03.099Z,18.70
2023-03-29T22:47:30.432Z,18.64
2023-03-29T22:52:42.907Z,18.71
2023-03-29T22:55:10.190Z,18.65
2023-03-29T22:57:36.770Z,18.71
2023-03-29T23:00:03.266Z,18.68
2023-03-29T23:02:29.771Z,18.65
2023-03-29T23:07:50.549Z,18.63
2023-03-29T23:10:18.919Z,18.67
2023-03-29T23:12:46.193Z,18.71
2023-03-29T23:15:12.594Z,18.64
2023-03-29T23:17:39.887Z,18.59
2023-03-29T23:22:53.677Z,18.61
2023-03-29T23:25:20.168Z,18.65
2023-03-29T23:27:47.450Z,18.56
2023-03-29T23:30:14.708Z,18.64
2023-03-29T23:32:42.003Z,18.58
2023-03-29T23:37:54.531Z,18.64
2023-03-29T23:40:22.807Z,18.71
2023-03-29T23:42:49.257Z,18.64
2023-03-29T23:45:15.704Z,18.73
2023-03-29T23:47:42.969Z,18.66
2023-03-29T23:53:04.480Z,18.66
2023-03-29T23:55:33.705Z,18.71
2023-03-29T23:58:02.050Z,18.66
